Air Resources Laboratory banner image
Air Resources Laboratory web site National Oceanic and Atmospheric Administration (NOAA)

wy metar


KBPI 261553Z AUTO 13003KT 10SM CLR 17/01 A3000 RMK AO2 SLP067 T01670006=
KBYG 261553Z AUTO 17014KT 10SM CLR 24/11 A2983 RMK AO2 SLP046 T02390111 TSNO=
KCOD 261556Z AUTO 00000KT 10SM CLR 23/07 A2986 RMK AO2 SLP067 T02280072=
KCPR 261553Z 21012KT 10SM CLR 26/01 A2991 RMK AO2 SLP056 T02610011=
KCYS 261553Z 29007KT 10SM CLR 27/M03 A3000 RMK AO2 SLP061 T02671028=
KDGW 261553Z AUTO 16008KT 10SM CLR 23/12 A2991 RMK AO2 SLP072 T02330122 $=
KEVW 261553Z AUTO 22006KT 10SM CLR 17/M01 A2999 RMK AO2 SLP065 T01721011 $=
KGCC 261553Z AUTO 16013KT 10SM CLR 25/11 A2983 RMK AO2 SLP060 T02500111 $=
KGEY 261553Z AUTO VRB04KT 10SM CLR 22/12 A2980 RMK AO2 SLP052 T02220117 TSNO $=
KJAC 261556Z 20004KT 10SM CLR 15/06 A2998 RMK AO2 SLP111 T01500056=
KLAR 261553Z AUTO 17008KT 10SM CLR 23/M06 A3007 RMK AO2 SLP066 T02331056 $=
KLND 261553Z AUTO 00000KT 10SM CLR 20/08 A2991 RMK AO2 SLP064 T02000078=
KRIW 261553Z AUTO 21006KT 10SM CLR 18/10 A2991 RMK AO2 SLP068 T01830100=
KRKS 261554Z AUTO 15013KT 10SM CLR 22/M07 A2998 RMK AO2 SLP064 T02171072=
KRWL 261553Z AUTO 19019G25KT 10SM CLR 24/M08 A3003 RMK AO2 PK WND 18031/1539
 SLP066 T02441083=
KSHR 261553Z AUTO 34004KT 10SM CLR 21/14 A2979 RMK AO2 SLP057 T02110139=
KTOR 261553Z AUTO 19005KT 10SM CLR 23/14 A2988 RMK AO2 SLP073 T02280144=
KWRL 261553Z AUTO 00000KT 10SM CLR 21/10 A2982 RMK AO2 SLP065 T02060100=